sensor_id;sensor_type;location;lat;lon;timestamp;P1;durP1;ratioP1;P2;durP2;ratioP2
75441;SDS011;64019;48.312;14.226;2023-03-14T00:01:15;6.73;;;2.47;;
75441;SDS011;64019;48.312;14.226;2023-03-14T00:03:43;3.63;;;2.07;;
75441;SDS011;64019;48.312;14.226;2023-03-14T00:06:09;5.43;;;2.90;;
75441;SDS011;64019;48.312;14.226;2023-03-14T00:08:36;5.10;;;2.03;;
75441;SDS011;64019;48.312;14.226;2023-03-14T00:11:05;3.63;;;1.73;;
75441;SDS011;64019;48.312;14.226;2023-03-14T00:13:42;4.10;;;1.70;;
75441;SDS011;64019;48.312;14.226;2023-03-14T00:16:09;3.10;;;1.97;;
75441;SDS011;64019;48.312;14.226;2023-03-14T00:18:36;4.30;;;1.93;;
75441;SDS011;64019;48.312;14.226;2023-03-14T00:21:03;5.03;;;2.30;;
75441;SDS011;64019;48.312;14.226;2023-03-14T00:23:30;7.20;;;2.10;;
75441;SDS011;64019;48.312;14.226;2023-03-14T00:26:04;4.90;;;2.03;;
75441;SDS011;64019;48.312;14.226;2023-03-14T00:28:31;4.10;;;2.00;;
75441;SDS011;64019;48.312;14.226;2023-03-14T00:30:57;6.30;;;2.20;;
75441;SDS011;64019;48.312;14.226;2023-03-14T00:33:23;5.83;;;3.17;;
75441;SDS011;64019;48.312;14.226;2023-03-14T00:35:55;8.57;;;3.20;;
75441;SDS011;64019;48.312;14.226;2023-03-14T00:38:22;4.93;;;2.47;;
75441;SDS011;64019;48.312;14.226;2023-03-14T00:40:49;3.70;;;2.03;;
75441;SDS011;64019;48.312;14.226;2023-03-14T00:43:15;3.80;;;1.90;;
75441;SDS011;64019;48.312;14.226;2023-03-14T00:45:41;8.47;;;1.93;;
75441;SDS011;64019;48.312;14.226;2023-03-14T00:48:07;4.70;;;2.50;;
75441;SDS011;64019;48.312;14.226;2023-03-14T00:50:32;5.23;;;2.67;;
75441;SDS011;64019;48.312;14.226;2023-03-14T00:52:58;5.50;;;2.63;;
75441;SDS011;64019;48.312;14.226;2023-03-14T00:55:24;5.83;;;2.60;;
75441;SDS011;64019;48.312;14.226;2023-03-14T00:57:50;7.00;;;3.03;;
75441;SDS011;64019;48.312;14.226;2023-03-14T01:00:15;5.90;;;3.13;;
75441;SDS011;64019;48.312;14.226;2023-03-14T01:02:41;6.63;;;3.47;;
75441;SDS011;64019;48.312;14.226;2023-03-14T01:05:07;7.73;;;3.60;;
75441;SDS011;64019;48.312;14.226;2023-03-14T01:07:35;6.67;;;3.90;;
75441;SDS011;64019;48.312;14.226;2023-03-14T01:10:02;6.07;;;3.10;;
75441;SDS011;64019;48.312;14.226;2023-03-14T01:12:29;5.33;;;3.20;;
75441;SDS011;64019;48.312;14.226;2023-03-14T01:14:55;3.60;;;2.50;;
75441;SDS011;64019;48.312;14.226;2023-03-14T01:17:20;2.90;;;2.20;;
75441;SDS011;64019;48.312;14.226;2023-03-14T01:19:47;5.00;;;2.87;;
75441;SDS011;64019;48.312;14.226;2023-03-14T01:22:13;6.20;;;2.87;;
75441;SDS011;64019;48.312;14.226;2023-03-14T01:24:38;8.00;;;2.77;;
75441;SDS011;64019;48.312;14.226;2023-03-14T01:27:04;4.93;;;3.00;;
75441;SDS011;64019;48.312;14.226;2023-03-14T01:29:30;8.87;;;3.00;;
75441;SDS011;64019;48.312;14.226;2023-03-14T01:31:55;7.43;;;3.67;;
75441;SDS011;64019;48.312;14.226;2023-03-14T01:34:21;4.33;;;2.67;;
75441;SDS011;64019;48.312;14.226;2023-03-14T01:36:46;5.30;;;2.90;;
75441;SDS011;64019;48.312;14.226;2023-03-14T01:39:12;4.83;;;3.00;;
75441;SDS011;64019;48.312;14.226;2023-03-14T01:41:38;5.60;;;2.97;;
75441;SDS011;64019;48.312;14.226;2023-03-14T01:44:04;8.63;;;3.20;;
75441;SDS011;64019;48.312;14.226;2023-03-14T01:46:36;6.87;;;3.50;;
75441;SDS011;64019;48.312;14.226;2023-03-14T01:52:03;7.20;;;3.20;;
75441;SDS011;64019;48.312;14.226;2023-03-14T01:54:39;7.10;;;3.37;;
75441;SDS011;64019;48.312;14.226;2023-03-14T01:59:52;5.73;;;3.00;;
75441;SDS011;64019;48.312;14.226;2023-03-14T02:02:23;5.40;;;3.43;;
75441;SDS011;64019;48.312;14.226;2023-03-14T02:04:51;5.80;;;3.63;;
75441;SDS011;64019;48.312;14.226;2023-03-14T02:07:26;12.87;;;3.67;;
75441;SDS011;64019;48.312;14.226;2023-03-14T02:10:00;9.13;;;3.93;;
75441;SDS011;64019;48.312;14.226;2023-03-14T02:12:28;5.77;;;3.60;;
75441;SDS011;64019;48.312;14.226;2023-03-14T02:14:54;6.20;;;3.37;;
75441;SDS011;64019;48.312;14.226;2023-03-14T02:17:19;4.37;;;3.07;;
75441;SDS011;64019;48.312;14.226;2023-03-14T02:22:32;6.77;;;3.17;;
75441;SDS011;64019;48.312;14.226;2023-03-14T02:27:54;7.87;;;3.67;;
75441;SDS011;64019;48.312;14.226;2023-03-14T02:30:21;5.70;;;3.83;;
75441;SDS011;64019;48.312;14.226;2023-03-14T02:32:56;7.77;;;3.60;;
75441;SDS011;64019;48.312;14.226;2023-03-14T02:35:26;8.70;;;3.60;;
75441;SDS011;64019;48.312;14.226;2023-03-14T02:38:06;8.77;;;3.63;;
75441;SDS011;64019;48.312;14.226;2023-03-14T02:40:46;4.97;;;3.80;;
75441;SDS011;64019;48.312;14.226;2023-03-14T02:43:12;8.33;;;3.93;;
75441;SDS011;64019;48.312;14.226;2023-03-14T02:45:39;7.10;;;4.00;;
75441;SDS011;64019;48.312;14.226;2023-03-14T02:48:26;8.27;;;3.97;;
75441;SDS011;64019;48.312;14.226;2023-03-14T02:50:57;6.70;;;3.47;;
75441;SDS011;64019;48.312;14.226;2023-03-14T02:53:25;5.57;;;3.13;;
75441;SDS011;64019;48.312;14.226;2023-03-14T02:55:52;7.60;;;3.20;;
75441;SDS011;64019;48.312;14.226;2023-03-14T02:58:18;11.43;;;4.43;;
75441;SDS011;64019;48.312;14.226;2023-03-14T03:00:44;5.73;;;3.30;;
75441;SDS011;64019;48.312;14.226;2023-03-14T03:03:11;5.50;;;3.63;;
75441;SDS011;64019;48.312;14.226;2023-03-14T03:05:36;7.13;;;3.60;;
75441;SDS011;64019;48.312;14.226;2023-03-14T03:08:02;10.17;;;3.60;;
75441;SDS011;64019;48.312;14.226;2023-03-14T03:10:29;8.20;;;4.07;;
75441;SDS011;64019;48.312;14.226;2023-03-14T03:12:55;8.80;;;4.00;;
75441;SDS011;64019;48.312;14.226;2023-03-14T03:15:21;7.40;;;3.93;;
75441;SDS011;64019;48.312;14.226;2023-03-14T03:17:47;7.93;;;3.53;;
75441;SDS011;64019;48.312;14.226;2023-03-14T03:20:12;5.17;;;3.60;;
75441;SDS011;64019;48.312;14.226;2023-03-14T03:22:38;6.17;;;3.10;;
75441;SDS011;64019;48.312;14.226;2023-03-14T03:25:05;4.93;;;3.60;;
75441;SDS011;64019;48.312;14.226;2023-03-14T03:27:32;10.17;;;3.57;;
75441;SDS011;64019;48.312;14.226;2023-03-14T03:29:59;6.30;;;3.53;;
75441;SDS011;64019;48.312;14.226;2023-03-14T03:32:25;8.83;;;3.70;;
75441;SDS011;64019;48.312;14.226;2023-03-14T03:34:51;8.90;;;3.90;;
75441;SDS011;64019;48.312;14.226;2023-03-14T03:37:16;8.60;;;3.77;;
75441;SDS011;64019;48.312;14.226;2023-03-14T03:39:42;10.07;;;4.23;;
75441;SDS011;64019;48.312;14.226;2023-03-14T03:42:09;7.20;;;3.60;;
75441;SDS011;64019;48.312;14.226;2023-03-14T03:44:35;5.83;;;3.57;;
75441;SDS011;64019;48.312;14.226;2023-03-14T03:47:01;10.03;;;4.60;;
75441;SDS011;64019;48.312;14.226;2023-03-14T03:49:31;5.13;;;3.57;;
75441;SDS011;64019;48.312;14.226;2023-03-14T03:51:57;6.37;;;3.83;;
75441;SDS011;64019;48.312;14.226;2023-03-14T03:54:24;8.13;;;3.60;;
75441;SDS011;64019;48.312;14.226;2023-03-14T03:56:50;6.03;;;3.40;;
75441;SDS011;64019;48.312;14.226;2023-03-14T03:59:16;7.43;;;3.43;;
75441;SDS011;64019;48.312;14.226;2023-03-14T04:01:42;8.00;;;4.10;;
75441;SDS011;64019;48.312;14.226;2023-03-14T04:04:07;5.80;;;3.50;;
75441;SDS011;64019;48.312;14.226;2023-03-14T04:06:33;8.17;;;3.13;;
75441;SDS011;64019;48.312;14.226;2023-03-14T04:08:59;9.10;;;4.70;;
75441;SDS011;64019;48.312;14.226;2023-03-14T04:11:24;6.60;;;3.30;;
75441;SDS011;64019;48.312;14.226;2023-03-14T04:13:50;7.60;;;3.30;;
75441;SDS011;64019;48.312;14.226;2023-03-14T04:16:20;11.57;;;3.40;;
75441;SDS011;64019;48.312;14.226;2023-03-14T04:18:47;5.80;;;3.40;;
75441;SDS011;64019;48.312;14.226;2023-03-14T04:21:13;9.17;;;3.90;;
75441;SDS011;64019;48.312;14.226;2023-03-14T04:23:39;6.63;;;3.70;;
75441;SDS011;64019;48.312;14.226;2023-03-14T04:26:05;4.83;;;3.50;;
75441;SDS011;64019;48.312;14.226;2023-03-14T04:28:31;7.30;;;3.70;;
75441;SDS011;64019;48.312;14.226;2023-03-14T04:30:57;7.80;;;3.93;;
75441;SDS011;64019;48.312;14.226;2023-03-14T04:33:22;8.40;;;3.47;;
75441;SDS011;64019;48.312;14.226;2023-03-14T04:35:48;5.10;;;3.43;;
75441;SDS011;64019;48.312;14.226;2023-03-14T04:38:17;11.03;;;4.10;;
75441;SDS011;64019;48.312;14.226;2023-03-14T04:40:43;7.50;;;4.20;;
75441;SDS011;64019;48.312;14.226;2023-03-14T04:43:09;5.93;;;3.73;;
75441;SDS011;64019;48.312;14.226;2023-03-14T04:45:36;5.13;;;3.50;;
75441;SDS011;64019;48.312;14.226;2023-03-14T04:48:02;6.63;;;3.83;;
75441;SDS011;64019;48.312;14.226;2023-03-14T04:50:27;9.87;;;3.80;;
75441;SDS011;64019;48.312;14.226;2023-03-14T04:52:53;7.57;;;3.87;;
75441;SDS011;64019;48.312;14.226;2023-03-14T04:55:18;7.67;;;4.27;;
75441;SDS011;64019;48.312;14.226;2023-03-14T04:57:44;7.17;;;3.57;;
75441;SDS011;64019;48.312;14.226;2023-03-14T05:00:10;6.10;;;3.63;;
75441;SDS011;64019;48.312;14.226;2023-03-14T05:02:36;6.63;;;3.13;;
75441;SDS011;64019;48.312;14.226;2023-03-14T05:05:02;7.67;;;3.87;;
75441;SDS011;64019;48.312;14.226;2023-03-14T05:07:28;6.03;;;4.03;;
75441;SDS011;64019;48.312;14.226;2023-03-14T05:09:53;16.60;;;8.87;;
75441;SDS011;64019;48.312;14.226;2023-03-14T05:12:19;12.47;;;6.13;;
75441;SDS011;64019;48.312;14.226;2023-03-14T05:14:45;8.37;;;5.70;;
75441;SDS011;64019;48.312;14.226;2023-03-14T05:17:11;9.27;;;5.37;;
75441;SDS011;64019;48.312;14.226;2023-03-14T05:19:39;11.90;;;4.83;;
75441;SDS011;64019;48.312;14.226;2023-03-14T05:22:05;7.87;;;4.60;;
75441;SDS011;64019;48.312;14.226;2023-03-14T05:24:31;12.00;;;5.10;;
75441;SDS011;64019;48.312;14.226;2023-03-14T05:26:57;7.63;;;4.13;;
75441;SDS011;64019;48.312;14.226;2023-03-14T05:29:22;15.47;;;5.10;;
75441;SDS011;64019;48.312;14.226;2023-03-14T05:31:48;12.23;;;5.20;;
75441;SDS011;64019;48.312;14.226;2023-03-14T05:34:13;9.77;;;4.33;;
75441;SDS011;64019;48.312;14.226;2023-03-14T05:36:39;14.07;;;4.80;;
75441;SDS011;64019;48.312;14.226;2023-03-14T05:39:05;13.00;;;5.33;;
75441;SDS011;64019;48.312;14.226;2023-03-14T05:41:30;8.50;;;5.20;;
75441;SDS011;64019;48.312;14.226;2023-03-14T05:43:56;10.87;;;4.93;;
75441;SDS011;64019;48.312;14.226;2023-03-14T05:46:21;9.80;;;4.77;;
75441;SDS011;64019;48.312;14.226;2023-03-14T05:48:47;13.27;;;5.40;;
75441;SDS011;64019;48.312;14.226;2023-03-14T05:51:13;14.07;;;5.93;;
75441;SDS011;64019;48.312;14.226;2023-03-14T05:53:38;10.33;;;4.60;;
75441;SDS011;64019;48.312;14.226;2023-03-14T05:56:04;8.23;;;4.83;;
75441;SDS011;64019;48.312;14.226;2023-03-14T05:58:30;13.00;;;5.77;;
75441;SDS011;64019;48.312;14.226;2023-03-14T06:00:56;7.73;;;5.20;;
75441;SDS011;64019;48.312;14.226;2023-03-14T06:03:21;13.93;;;5.90;;
75441;SDS011;64019;48.312;14.226;2023-03-14T06:05:49;19.13;;;7.13;;
75441;SDS011;64019;48.312;14.226;2023-03-14T06:08:15;15.00;;;6.33;;
75441;SDS011;64019;48.312;14.226;2023-03-14T06:10:41;21.33;;;6.83;;
75441;SDS011;64019;48.312;14.226;2023-03-14T06:13:07;15.50;;;6.97;;
75441;SDS011;64019;48.312;14.226;2023-03-14T06:15:32;11.80;;;5.77;;
75441;SDS011;64019;48.312;14.226;2023-03-14T06:17:58;13.90;;;6.10;;
75441;SDS011;64019;48.312;14.226;2023-03-14T06:20:23;11.77;;;6.10;;
75441;SDS011;64019;48.312;14.226;2023-03-14T06:22:49;15.33;;;6.17;;
75441;SDS011;64019;48.312;14.226;2023-03-14T06:25:15;13.33;;;6.27;;
75441;SDS011;64019;48.312;14.226;2023-03-14T06:27:40;11.67;;;6.10;;
75441;SDS011;64019;48.312;14.226;2023-03-14T06:30:06;10.97;;;5.90;;
75441;SDS011;64019;48.312;14.226;2023-03-14T06:32:32;12.20;;;6.43;;
75441;SDS011;64019;48.312;14.226;2023-03-14T06:34:58;14.00;;;5.63;;
75441;SDS011;64019;48.312;14.226;2023-03-14T06:37:26;14.10;;;5.83;;
75441;SDS011;64019;48.312;14.226;2023-03-14T06:39:55;13.63;;;6.37;;
75441;SDS011;64019;48.312;14.226;2023-03-14T06:42:21;13.87;;;6.00;;
75441;SDS011;64019;48.312;14.226;2023-03-14T06:44:46;14.53;;;5.53;;
75441;SDS011;64019;48.312;14.226;2023-03-14T06:47:12;12.37;;;5.80;;
75441;SDS011;64019;48.312;14.226;2023-03-14T06:49:38;17.93;;;6.77;;
75441;SDS011;64019;48.312;14.226;2023-03-14T06:52:03;14.80;;;6.10;;
75441;SDS011;64019;48.312;14.226;2023-03-14T06:54:29;13.63;;;5.80;;
75441;SDS011;64019;48.312;14.226;2023-03-14T06:56:55;8.23;;;5.43;;
75441;SDS011;64019;48.312;14.226;2023-03-14T06:59:20;15.40;;;6.60;;
75441;SDS011;64019;48.312;14.226;2023-03-14T07:01:46;15.23;;;6.70;;
75441;SDS011;64019;48.312;14.226;2023-03-14T07:04:13;11.67;;;5.80;;
75441;SDS011;64019;48.312;14.226;2023-03-14T07:06:39;14.47;;;5.80;;
75441;SDS011;64019;48.312;14.226;2023-03-14T07:09:09;12.37;;;6.10;;
75441;SDS011;64019;48.312;14.226;2023-03-14T07:11:38;12.97;;;5.53;;
75441;SDS011;64019;48.312;14.226;2023-03-14T07:14:03;16.63;;;5.80;;
75441;SDS011;64019;48.312;14.226;2023-03-14T07:16:29;12.27;;;6.13;;
75441;SDS011;64019;48.312;14.226;2023-03-14T07:18:57;10.60;;;5.87;;
75441;SDS011;64019;48.312;14.226;2023-03-14T07:21:23;11.97;;;6.60;;
75441;SDS011;64019;48.312;14.226;2023-03-14T07:23:49;12.80;;;6.40;;
75441;SDS011;64019;48.312;14.226;2023-03-14T07:26:15;13.97;;;5.70;;
75441;SDS011;64019;48.312;14.226;2023-03-14T07:28:41;10.20;;;5.90;;
75441;SDS011;64019;48.312;14.226;2023-03-14T07:31:07;16.37;;;6.23;;
75441;SDS011;64019;48.312;14.226;2023-03-14T07:33:33;14.57;;;7.33;;
75441;SDS011;64019;48.312;14.226;2023-03-14T07:35:58;14.57;;;6.83;;
75441;SDS011;64019;48.312;14.226;2023-03-14T07:38:24;14.43;;;6.57;;
75441;SDS011;64019;48.312;14.226;2023-03-14T07:40:50;13.30;;;6.30;;
75441;SDS011;64019;48.312;14.226;2023-03-14T07:43:22;17.40;;;6.97;;
75441;SDS011;64019;48.312;14.226;2023-03-14T07:45:47;17.73;;;7.03;;
75441;SDS011;64019;48.312;14.226;2023-03-14T07:48:13;10.10;;;5.97;;
75441;SDS011;64019;48.312;14.226;2023-03-14T07:50:39;13.73;;;6.27;;
75441;SDS011;64019;48.312;14.226;2023-03-14T07:53:04;15.77;;;6.47;;
75441;SDS011;64019;48.312;14.226;2023-03-14T07:55:30;14.33;;;6.30;;
75441;SDS011;64019;48.312;14.226;2023-03-14T07:57:56;11.87;;;6.00;;
75441;SDS011;64019;48.312;14.226;2023-03-14T08:00:21;15.90;;;6.97;;
75441;SDS011;64019;48.312;14.226;2023-03-14T08:02:47;12.43;;;7.00;;
75441;SDS011;64019;48.312;14.226;2023-03-14T08:05:13;13.33;;;6.73;;
75441;SDS011;64019;48.312;14.226;2023-03-14T08:07:38;11.30;;;6.13;;
75441;SDS011;64019;48.312;14.226;2023-03-14T08:10:04;17.00;;;6.37;;
75441;SDS011;64019;48.312;14.226;2023-03-14T08:12:30;10.30;;;5.63;;
75441;SDS011;64019;48.312;14.226;2023-03-14T08:14:56;13.13;;;6.30;;
75441;SDS011;64019;48.312;14.226;2023-03-14T08:17:22;9.80;;;5.60;;
75441;SDS011;64019;48.312;14.226;2023-03-14T08:19:47;12.83;;;6.50;;
75441;SDS011;64019;48.312;14.226;2023-03-14T08:22:13;13.20;;;5.77;;
75441;SDS011;64019;48.312;14.226;2023-03-14T08:24:39;12.83;;;6.00;;
75441;SDS011;64019;48.312;14.226;2023-03-14T08:27:06;9.83;;;6.13;;
75441;SDS011;64019;48.312;14.226;2023-03-14T08:29:31;12.50;;;5.70;;
75441;SDS011;64019;48.312;14.226;2023-03-14T08:31:57;13.27;;;6.13;;
75441;SDS011;64019;48.312;14.226;2023-03-14T08:34:22;9.47;;;5.70;;
75441;SDS011;64019;48.312;14.226;2023-03-14T08:36:48;9.97;;;4.77;;
75441;SDS011;64019;48.312;14.226;2023-03-14T08:39:14;11.17;;;5.00;;
75441;SDS011;64019;48.312;14.226;2023-03-14T08:41:39;7.33;;;4.43;;
75441;SDS011;64019;48.312;14.226;2023-03-14T08:44:07;5.90;;;4.03;;
75441;SDS011;64019;48.312;14.226;2023-03-14T08:46:33;14.40;;;4.30;;
75441;SDS011;64019;48.312;14.226;2023-03-14T08:48:59;7.10;;;3.57;;
75441;SDS011;64019;48.312;14.226;2023-03-14T08:51:25;8.83;;;2.40;;
75441;SDS011;64019;48.312;14.226;2023-03-14T08:53:50;7.97;;;1.63;;
75441;SDS011;64019;48.312;14.226;2023-03-14T08:56:16;4.93;;;1.40;;
75441;SDS011;64019;48.312;14.226;2023-03-14T08:58:42;3.97;;;1.10;;
75441;SDS011;64019;48.312;14.226;2023-03-14T09:01:09;5.70;;;1.03;;
75441;SDS011;64019;48.312;14.226;2023-03-14T09:03:36;4.17;;;0.90;;
75441;SDS011;64019;48.312;14.226;2023-03-14T09:06:06;7.53;;;1.17;;
75441;SDS011;64019;48.312;14.226;2023-03-14T09:08:34;4.83;;;0.90;;
75441;SDS011;64019;48.312;14.226;2023-03-14T09:11:00;2.87;;;1.10;;
75441;SDS011;64019;48.312;14.226;2023-03-14T09:13:25;3.13;;;0.90;;
75441;SDS011;64019;48.312;14.226;2023-03-14T09:15:52;5.07;;;0.80;;
75441;SDS011;64019;48.312;14.226;2023-03-14T09:18:21;0.93;;;0.63;;
75441;SDS011;64019;48.312;14.226;2023-03-14T09:20:47;1.73;;;0.70;;
75441;SDS011;64019;48.312;14.226;2023-03-14T09:23:13;0.80;;;0.67;;
75441;SDS011;64019;48.312;14.226;2023-03-14T09:25:39;3.43;;;1.00;;
75441;SDS011;64019;48.312;14.226;2023-03-14T09:28:05;2.07;;;0.80;;
75441;SDS011;64019;48.312;14.226;2023-03-14T09:30:30;3.40;;;1.47;;
75441;SDS011;64019;48.312;14.226;2023-03-14T09:32:56;1.33;;;0.80;;
75441;SDS011;64019;48.312;14.226;2023-03-14T09:35:22;1.07;;;0.70;;
75441;SDS011;64019;48.312;14.226;2023-03-14T09:37:48;0.97;;;0.53;;
75441;SDS011;64019;48.312;14.226;2023-03-14T09:40:17;1.77;;;0.70;;
75441;SDS011;64019;48.312;14.226;2023-03-14T09:42:45;2.07;;;0.80;;
75441;SDS011;64019;48.312;14.226;2023-03-14T09:45:19;1.60;;;0.63;;
75441;SDS011;64019;48.312;14.226;2023-03-14T09:47:51;3.63;;;0.70;;
75441;SDS011;64019;48.312;14.226;2023-03-14T09:50:18;0.40;;;0.40;;
75441;SDS011;64019;48.312;14.226;2023-03-14T09:52:51;1.63;;;0.53;;
75441;SDS011;64019;48.312;14.226;2023-03-14T09:55:22;1.17;;;0.50;;
75441;SDS011;64019;48.312;14.226;2023-03-14T09:57:51;0.97;;;0.40;;
75441;SDS011;64019;48.312;14.226;2023-03-14T10:00:26;0.53;;;0.33;;
75441;SDS011;64019;48.312;14.226;2023-03-14T10:05:38;1.60;;;0.70;;
75441;SDS011;64019;48.312;14.226;2023-03-14T10:08:04;0.93;;;0.80;;
75441;SDS011;64019;48.312;14.226;2023-03-14T10:10:30;2.40;;;0.53;;
75441;SDS011;64019;48.312;14.226;2023-03-14T10:12:58;1.57;;;0.43;;
75441;SDS011;64019;48.312;14.226;2023-03-14T10:15:30;2.00;;;0.70;;
75441;SDS011;64019;48.312;14.226;2023-03-14T10:17:58;2.40;;;0.50;;
75441;SDS011;64019;48.312;14.226;2023-03-14T10:22:57;1.10;;;0.47;;
75441;SDS011;64019;48.312;14.226;2023-03-14T10:25:33;2.37;;;0.50;;
75441;SDS011;64019;48.312;14.226;2023-03-14T10:28:00;0.77;;;0.37;;
75441;SDS011;64019;48.312;14.226;2023-03-14T10:30:30;1.70;;;0.80;;
75441;SDS011;64019;48.312;14.226;2023-03-14T10:33:18;1.13;;;0.70;;
75441;SDS011;64019;48.312;14.226;2023-03-14T10:35:59;1.33;;;0.80;;
75441;SDS011;64019;48.312;14.226;2023-03-14T10:38:31;1.97;;;0.50;;
75441;SDS011;64019;48.312;14.226;2023-03-14T10:40:59;2.77;;;0.60;;
75441;SDS011;64019;48.312;14.226;2023-03-14T10:43:26;0.47;;;0.47;;
75441;SDS011;64019;48.312;14.226;2023-03-14T10:45:57;1.53;;;0.63;;
75441;SDS011;64019;48.312;14.226;2023-03-14T10:48:34;1.13;;;0.63;;
75441;SDS011;64019;48.312;14.226;2023-03-14T10:51:09;0.83;;;0.50;;
75441;SDS011;64019;48.312;14.226;2023-03-14T10:53:47;1.80;;;0.60;;
75441;SDS011;64019;48.312;14.226;2023-03-14T10:56:23;2.90;;;0.90;;
75441;SDS011;64019;48.312;14.226;2023-03-14T10:58:51;1.17;;;0.50;;
75441;SDS011;64019;48.312;14.226;2023-03-14T11:07:35;2.73;;;0.70;;
75441;SDS011;64019;48.312;14.226;2023-03-14T11:24:13;0.83;;;0.70;;
75441;SDS011;64019;48.312;14.226;2023-03-14T11:27:07;1.20;;;0.60;;
75441;SDS011;64019;48.312;14.226;2023-03-14T11:32:49;2.00;;;0.60;;
75441;SDS011;64019;48.312;14.226;2023-03-14T11:37:53;1.13;;;0.40;;
75441;SDS011;64019;48.312;14.226;2023-03-14T11:40:35;0.70;;;0.43;;
75441;SDS011;64019;48.312;14.226;2023-03-14T11:43:11;1.80;;;0.47;;
75441;SDS011;64019;48.312;14.226;2023-03-14T11:45:52;3.87;;;0.40;;
75441;SDS011;64019;48.312;14.226;2023-03-14T11:51:16;1.43;;;0.30;;
75441;SDS011;64019;48.312;14.226;2023-03-14T11:54:20;0.93;;;0.53;;
75441;SDS011;64019;48.312;14.226;2023-03-14T11:57:05;0.60;;;0.30;;
75441;SDS011;64019;48.312;14.226;2023-03-14T12:05:39;0.73;;;0.40;;
75441;SDS011;64019;48.312;14.226;2023-03-14T12:10:58;0.87;;;0.40;;
75441;SDS011;64019;48.312;14.226;2023-03-14T12:13:32;2.53;;;0.40;;
75441;SDS011;64019;48.312;14.226;2023-03-14T12:16:03;1.90;;;0.33;;
75441;SDS011;64019;48.312;14.226;2023-03-14T12:18:49;0.63;;;0.30;;
75441;SDS011;64019;48.312;14.226;2023-03-14T12:21:16;0.30;;;0.30;;
75441;SDS011;64019;48.312;14.226;2023-03-14T12:26:22;0.83;;;0.30;;
75441;SDS011;64019;48.312;14.226;2023-03-14T12:31:42;0.20;;;0.20;;
75441;SDS011;64019;48.312;14.226;2023-03-14T12:42:00;0.80;;;0.50;;
75441;SDS011;64019;48.312;14.226;2023-03-14T12:49:48;0.20;;;0.20;;
75441;SDS011;64019;48.312;14.226;2023-03-14T12:52:33;0.77;;;0.30;;
75441;SDS011;64019;48.312;14.226;2023-03-14T12:55:43;2.13;;;0.20;;
75441;SDS011;64019;48.312;14.226;2023-03-14T13:01:01;0.40;;;0.30;;
75441;SDS011;64019;48.312;14.226;2023-03-14T13:03:40;0.83;;;0.40;;
75441;SDS011;64019;48.312;14.226;2023-03-14T13:11:52;1.33;;;0.40;;
75441;SDS011;64019;48.312;14.226;2023-03-14T13:14:18;1.13;;;0.47;;
75441;SDS011;64019;48.312;14.226;2023-03-14T13:16:45;0.40;;;0.40;;
75441;SDS011;64019;48.312;14.226;2023-03-14T13:19:25;1.70;;;0.60;;
75441;SDS011;64019;48.312;14.226;2023-03-14T13:21:54;0.23;;;0.23;;
75441;SDS011;64019;48.312;14.226;2023-03-14T13:24:26;0.60;;;0.30;;
75441;SDS011;64019;48.312;14.226;2023-03-14T13:26:55;0.40;;;0.40;;
75441;SDS011;64019;48.312;14.226;2023-03-14T13:29:23;3.13;;;0.40;;
75441;SDS011;64019;48.312;14.226;2023-03-14T13:31:54;3.33;;;1.73;;
75441;SDS011;64019;48.312;14.226;2023-03-14T13:34:24;0.83;;;0.70;;
75441;SDS011;64019;48.312;14.226;2023-03-14T13:36:59;0.50;;;0.47;;
75441;SDS011;64019;48.312;14.226;2023-03-14T13:39:26;0.87;;;0.40;;
75441;SDS011;64019;48.312;14.226;2023-03-14T13:41:55;0.30;;;0.30;;
75441;SDS011;64019;48.312;14.226;2023-03-14T13:44:25;1.43;;;0.80;;
75441;SDS011;64019;48.312;14.226;2023-03-14T13:46:51;5.10;;;0.90;;
75441;SDS011;64019;48.312;14.226;2023-03-14T13:49:22;0.77;;;0.50;;
75441;SDS011;64019;48.312;14.226;2023-03-14T13:51:50;1.43;;;0.53;;
75441;SDS011;64019;48.312;14.226;2023-03-14T13:54:17;1.60;;;0.40;;
75441;SDS011;64019;48.312;14.226;2023-03-14T13:56:44;2.37;;;0.70;;
75441;SDS011;64019;48.312;14.226;2023-03-14T13:59:30;1.50;;;0.57;;
75441;SDS011;64019;48.312;14.226;2023-03-14T14:01:58;0.37;;;0.30;;
75441;SDS011;64019;48.312;14.226;2023-03-14T14:04:28;0.33;;;0.30;;
75441;SDS011;64019;48.312;14.226;2023-03-14T14:06:57;0.40;;;0.37;;
75441;SDS011;64019;48.312;14.226;2023-03-14T14:09:58;1.07;;;0.30;;
75441;SDS011;64019;48.312;14.226;2023-03-14T14:12:19;0.50;;;0.30;;
75441;SDS011;64019;48.312;14.226;2023-03-14T14:17:44;5.00;;;0.40;;
75441;SDS011;64019;48.312;14.226;2023-03-14T14:23:11;0.30;;;0.20;;
75441;SDS011;64019;48.312;14.226;2023-03-14T14:25:40;1.53;;;0.40;;
75441;SDS011;64019;48.312;14.226;2023-03-14T14:28:21;1.40;;;0.97;;
75441;SDS011;64019;48.312;14.226;2023-03-14T14:30:59;1.93;;;1.13;;
75441;SDS011;64019;48.312;14.226;2023-03-14T14:36:41;0.30;;;0.30;;
75441;SDS011;64019;48.312;14.226;2023-03-14T14:41:35;0.53;;;0.30;;
75441;SDS011;64019;48.312;14.226;2023-03-14T14:44:06;0.40;;;0.40;;
75441;SDS011;64019;48.312;14.226;2023-03-14T14:46:33;1.03;;;0.40;;
75441;SDS011;64019;48.312;14.226;2023-03-14T14:49:19;1.37;;;0.33;;
75441;SDS011;64019;48.312;14.226;2023-03-14T14:51:48;0.70;;;0.30;;
75441;SDS011;64019;48.312;14.226;2023-03-14T14:54:16;1.13;;;0.40;;
75441;SDS011;64019;48.312;14.226;2023-03-14T14:56:48;0.47;;;0.40;;
75441;SDS011;64019;48.312;14.226;2023-03-14T14:59:22;3.03;;;0.60;;
75441;SDS011;64019;48.312;14.226;2023-03-14T15:01:50;0.60;;;0.40;;
75441;SDS011;64019;48.312;14.226;2023-03-14T15:04:21;0.67;;;0.50;;
75441;SDS011;64019;48.312;14.226;2023-03-14T15:06:47;0.80;;;0.30;;
75441;SDS011;64019;48.312;14.226;2023-03-14T15:09:15;0.33;;;0.33;;
75441;SDS011;64019;48.312;14.226;2023-03-14T15:11:42;3.13;;;0.77;;
75441;SDS011;64019;48.312;14.226;2023-03-14T15:14:08;1.23;;;0.60;;
75441;SDS011;64019;48.312;14.226;2023-03-14T15:16:33;0.50;;;0.40;;
75441;SDS011;64019;48.312;14.226;2023-03-14T15:19:00;0.30;;;0.30;;
75441;SDS011;64019;48.312;14.226;2023-03-14T15:21:30;2.30;;;0.40;;
75441;SDS011;64019;48.312;14.226;2023-03-14T15:23:56;0.97;;;0.50;;
75441;SDS011;64019;48.312;14.226;2023-03-14T15:26:24;2.27;;;0.47;;
75441;SDS011;64019;48.312;14.226;2023-03-14T15:28:51;1.00;;;0.40;;
75441;SDS011;64019;48.312;14.226;2023-03-14T15:31:18;0.37;;;0.30;;
75441;SDS011;64019;48.312;14.226;2023-03-14T15:33:46;0.53;;;0.50;;
75441;SDS011;64019;48.312;14.226;2023-03-14T15:36:28;0.40;;;0.20;;
75441;SDS011;64019;48.312;14.226;2023-03-14T15:38:58;0.70;;;0.30;;
75441;SDS011;64019;48.312;14.226;2023-03-14T15:41:24;0.57;;;0.47;;
75441;SDS011;64019;48.312;14.226;2023-03-14T15:43:51;2.10;;;0.40;;
75441;SDS011;64019;48.312;14.226;2023-03-14T15:46:17;0.37;;;0.37;;
75441;SDS011;64019;48.312;14.226;2023-03-14T15:48:44;0.33;;;0.33;;
75441;SDS011;64019;48.312;14.226;2023-03-14T15:51:10;0.60;;;0.50;;
75441;SDS011;64019;48.312;14.226;2023-03-14T15:53:36;0.60;;;0.60;;
75441;SDS011;64019;48.312;14.226;2023-03-14T15:56:06;1.17;;;0.80;;
75441;SDS011;64019;48.312;14.226;2023-03-14T15:58:35;3.20;;;1.30;;
75441;SDS011;64019;48.312;14.226;2023-03-14T16:01:01;1.03;;;0.80;;
75441;SDS011;64019;48.312;14.226;2023-03-14T16:03:28;2.20;;;0.50;;
75441;SDS011;64019;48.312;14.226;2023-03-14T16:05:54;2.33;;;0.40;;
75441;SDS011;64019;48.312;14.226;2023-03-14T16:08:20;7.53;;;0.80;;
75441;SDS011;64019;48.312;14.226;2023-03-14T16:10:47;0.70;;;0.70;;